Terminal Aerodrome Forecast
Issued by NWS Bismarck, ND

Home | Current Version | Previous Version | Graphics & Text | Print | Product List | Glossary On
Versions: 1 2 3 4 5 6 7 8 9 10 11 12 13
000
FTUS43 KBIS 240532
TAFBIS
TAF
KBIS 240532Z 2406/2506 13009KT P6SM FEW150 SCT250
     FM241200 17015KT P6SM FEW150 SCT250
     FM241700 16014G22KT P6SM SCT120 SCT150
     FM250200 12011KT P6SM SCT120 SCT250=

USA.gov is the U.S. government's official web portal to all federal, state and local government web resources and services.